Time,TemperatureF,DewpointF,PressureIn,WindDirection,WindDirectionDegrees,WindSpeedMPH,WindSpeedGustMPH,Humidity,HourlyPrecipIn,Conditions,Clouds,dailyrainin,SoftwareType,DateUTC
2013-03-24 00:31:00,71.3,70.0,29.84,SSE,157,4.0,5.0,97,0.00,,,0.00,weatherlink.com 1.10,2013-03-24 04:31:00,
2013-03-24 00:46:00,71.4,71.0,29.83,SSE,161,3.0,6.0,97,0.00,,,0.00,weatherlink.com 1.10,2013-03-24 04:46:00,
2013-03-24 01:01:00,71.1,70.0,29.83,SSE,155,2.0,6.0,97,0.00,,,0.00,weatherlink.com 1.10,2013-03-24 05:01:00,
2013-03-24 01:16:00,71.1,70.0,29.83,SSE,161,2.0,4.0,97,0.00,,,0.00,weatherlink.com 1.10,2013-03-24 05:16:00,
2013-03-24 01:31:00,71.1,70.0,29.82,SSE,153,3.0,6.0,97,0.00,,,0.00,weatherlink.com 1.10,2013-03-24 05:31:00,
2013-03-24 01:46:00,71.1,70.0,29.81,SSE,167,2.0,5.0,97,0.00,,,0.00,weatherlink.com 1.10,2013-03-24 05:46:00,
2013-03-24 02:01:00,71.3,71.0,29.80,South,190,5.0,8.0,98,0.00,,,0.00,weatherlink.com 1.10,2013-03-24 06:01:00,
2013-03-24 02:16:00,71.5,71.0,29.80,South,178,3.0,7.0,98,0.00,,,0.00,weatherlink.com 1.10,2013-03-24 06:16:00,
2013-03-24 02:31:00,71.6,71.0,29.79,South,187,6.0,10.0,98,0.00,,,0.00,weatherlink.com 1.10,2013-03-24 06:31:00,
2013-03-24 02:46:00,71.5,71.0,29.78,SSW,198,6.0,11.0,97,0.00,,,0.00,weatherlink.com 1.10,2013-03-24 06:46:00,
2013-03-24 03:01:00,71.4,71.0,29.77,South,171,8.0,11.0,97,0.00,,,0.00,weatherlink.com 1.10,2013-03-24 07:01:00,
2013-03-24 03:16:00,71.3,71.0,29.76,SSW,200,5.0,12.0,98,0.00,,,0.00,weatherlink.com 1.10,2013-03-24 07:16:00,
2013-03-24 03:31:00,71.2,71.0,29.75,SW,215,9.0,10.0,98,0.00,,,0.00,weatherlink.com 1.10,2013-03-24 07:31:00,
2013-03-24 03:46:00,71.2,70.0,29.75,SSW,195,7.0,13.0,97,0.00,,,0.00,weatherlink.com 1.10,2013-03-24 07:46:00,
2013-03-24 04:02:00,71.0,70.0,29.73,South,177,9.0,15.0,95,0.00,,,0.00,weatherlink.com 1.10,2013-03-24 08:02:00,
2013-03-24 04:17:00,70.8,69.0,29.73,SSW,207,3.0,11.0,95,0.00,,,0.00,weatherlink.com 1.10,2013-03-24 08:17:00,
2013-03-24 04:32:00,70.7,69.0,29.73,SSW,207,7.0,9.0,94,0.00,,,0.00,weatherlink.com 1.10,2013-03-24 08:32:00,
2013-03-24 04:47:00,70.8,69.0,29.73,SSW,204,7.0,11.0,94,0.00,,,0.00,weatherlink.com 1.10,2013-03-24 08:47:00,
2013-03-24 05:02:00,70.7,69.0,29.73,SSW,210,11.0,11.0,94,0.00,,,0.00,weatherlink.com 1.10,2013-03-24 09:02:00,
2013-03-24 05:17:00,70.4,69.0,29.73,SSW,194,4.0,10.0,94,0.00,,,0.00,weatherlink.com 1.10,2013-03-24 09:17:00,
2013-03-24 05:47:00,70.4,69.0,29.72,SSW,200,7.0,10.0,94,0.00,,,0.00,weatherlink.com 1.10,2013-03-24 09:47:00,
2013-03-24 06:02:00,71.1,69.0,29.72,SSW,199,10.0,13.0,93,0.00,,,0.00,weatherlink.com 1.10,2013-03-24 10:02:00,
2013-03-24 06:17:00,71.4,69.0,29.71,SSW,202,10.0,16.0,92,0.00,,,0.00,weatherlink.com 1.10,2013-03-24 10:17:00,
2013-03-24 06:32:00,71.1,69.0,29.71,SSW,198,9.0,15.0,93,0.00,,,0.00,weatherlink.com 1.10,2013-03-24 10:32:00,
2013-03-24 07:02:00,71.1,69.0,29.70,SSE,156,12.0,16.0,94,0.00,,,0.00,weatherlink.com 1.10,2013-03-24 11:02:00,
2013-03-24 07:17:00,71.3,70.0,29.70,South,175,11.0,19.0,95,0.00,,,0.00,weatherlink.com 1.10,2013-03-24 11:17:00,
2013-03-24 07:32:00,71.4,70.0,29.70,SSW,205,10.0,18.0,96,0.00,,,0.00,weatherlink.com 1.10,2013-03-24 11:32:00,
2013-03-24 07:47:00,71.5,70.0,29.70,SSW,213,14.0,20.0,96,0.00,,,0.00,weatherlink.com 1.10,2013-03-24 11:47:00,
2013-03-24 08:02:00,71.6,71.0,29.70,SW,224,14.0,16.0,97,0.00,,,0.00,weatherlink.com 1.10,2013-03-24 12:02:00,
2013-03-24 08:17:00,71.5,71.0,29.70,SSW,206,7.0,17.0,97,0.00,,,0.00,weatherlink.com 1.10,2013-03-24 12:17:00,
2013-03-24 08:32:00,72.2,71.0,29.70,SW,221,13.0,17.0,96,0.00,,,0.00,weatherlink.com 1.10,2013-03-24 12:32:00,
2013-03-24 08:47:00,72.6,71.0,29.71,SW,236,8.0,16.0,96,0.00,,,0.00,weatherlink.com 1.10,2013-03-24 12:47:00,
2013-03-24 09:02:00,73.0,72.0,29.71,SW,228,5.0,12.0,96,0.00,,,0.00,weatherlink.com 1.10,2013-03-24 13:02:00,
2013-03-24 09:17:00,73.9,72.0,29.73,WSW,252,9.0,15.0,95,0.00,,,0.00,weatherlink.com 1.10,2013-03-24 13:17:00,
2013-03-24 09:32:00,75.0,73.0,29.74,SW,219,13.0,20.0,92,0.00,,,0.00,weatherlink.com 1.10,2013-03-24 13:32:00,
2013-03-24 09:47:00,75.3,72.0,29.75,SW,223,8.0,18.0,90,0.00,,,0.00,weatherlink.com 1.10,2013-03-24 13:47:00,
2013-03-24 10:02:00,75.7,72.0,29.75,WSW,253,15.0,22.0,89,0.00,,,0.00,weatherlink.com 1.10,2013-03-24 14:02:00,
2013-03-24 10:17:00,76.2,72.0,29.76,WSW,247,14.0,24.0,87,0.00,,,0.00,weatherlink.com 1.10,2013-03-24 14:17:00,
2013-03-24 10:32:00,76.7,72.0,29.77,WSW,244,13.0,20.0,86,0.00,,,0.00,weatherlink.com 1.10,2013-03-24 14:32:00,
2013-03-24 10:47:00,76.7,72.0,29.77,SW,235,16.0,25.0,86,0.00,,,0.00,weatherlink.com 1.10,2013-03-24 14:47:00,
2013-03-24 11:02:00,77.0,73.0,29.77,WSW,254,17.0,25.0,86,0.00,,,0.00,weatherlink.com 1.10,2013-03-24 15:02:00,
2013-03-24 11:17:00,77.3,73.0,29.76,WSW,246,17.0,22.0,85,0.00,,,0.00,weatherlink.com 1.10,2013-03-24 15:17:00,
2013-03-24 11:32:00,78.5,73.0,29.77,WSW,254,12.0,27.0,83,0.00,,,0.00,weatherlink.com 1.10,2013-03-24 15:32:00,
2013-03-24 11:47:00,79.0,73.0,29.76,SSW,207,17.0,31.0,82,0.00,,,0.00,weatherlink.com 1.10,2013-03-24 15:47:00,
2013-03-24 12:02:00,79.4,73.0,29.75,SW,223,14.0,29.0,81,0.00,,,0.00,weatherlink.com 1.10,2013-03-24 16:02:00,
2013-03-24 12:17:00,79.4,73.0,29.75,West,261,24.0,35.0,81,0.00,,,0.00,weatherlink.com 1.10,2013-03-24 16:17:00,
2013-03-24 12:32:00,79.1,73.0,29.74,SW,232,20.0,29.0,81,0.00,,,0.00,weatherlink.com 1.10,2013-03-24 16:32:00,
2013-03-24 12:47:00,80.0,73.0,29.74,West,261,11.0,24.0,79,0.00,,,0.00,weatherlink.com 1.10,2013-03-24 16:47:00,
2013-03-24 13:02:00,80.0,73.0,29.74,SW,217,12.0,27.0,78,0.00,,,0.00,weatherlink.com 1.10,2013-03-24 17:02:00,
2013-03-24 13:17:00,79.1,72.0,29.73,WSW,251,19.0,27.0,79,0.00,,,0.00,weatherlink.com 1.10,2013-03-24 17:17:00,
2013-03-24 13:32:00,79.0,72.0,29.71,SW,228,6.0,25.0,80,0.00,,,0.00,weatherlink.com 1.10,2013-03-24 17:32:00,
2013-03-24 13:47:00,79.6,72.0,29.70,SW,227,14.0,31.0,78,0.00,,,0.00,weatherlink.com 1.10,2013-03-24 17:47:00,
2013-03-24 14:03:00,79.7,72.0,29.69,SW,236,16.0,31.0,77,0.00,,,0.00,weatherlink.com 1.10,2013-03-24 18:03:00,
2013-03-24 14:18:00,79.5,72.0,29.69,WSW,254,18.0,30.0,77,0.00,,,0.00,weatherlink.com 1.10,2013-03-24 18:18:00,
2013-03-24 14:33:00,80.5,72.0,29.69,WSW,238,26.0,31.0,76,0.00,,,0.00,weatherlink.com 1.10,2013-03-24 18:33:00,
2013-03-24 14:48:00,79.7,72.0,29.67,WSW,240,15.0,27.0,77,0.00,,,0.00,weatherlink.com 1.10,2013-03-24 18:48:00,
2013-03-24 15:03:00,79.3,72.0,29.67,WSW,252,13.0,25.0,78,0.00,,,0.00,weatherlink.com 1.10,2013-03-24 19:03:00,
2013-03-24 15:18:00,78.8,72.0,29.67,WSW,252,14.0,23.0,80,0.00,,,0.00,weatherlink.com 1.10,2013-03-24 19:18:00,
2013-03-24 15:33:00,78.5,72.0,29.67,WSW,241,12.0,23.0,80,0.00,,,0.00,weatherlink.com 1.10,2013-03-24 19:33:00,
2013-03-24 15:48:00,76.4,72.0,29.66,SW,234,12.0,25.0,86,0.03,,,0.03,weatherlink.com 1.10,2013-03-24 19:48:00,
2013-03-24 16:03:00,76.4,72.0,29.67,WSW,247,7.0,20.0,87,0.03,,,0.03,weatherlink.com 1.10,2013-03-24 20:03:00,
2013-03-24 16:18:00,76.4,73.0,29.66,WSW,251,10.0,19.0,88,0.03,,,0.03,weatherlink.com 1.10,2013-03-24 20:18:00,
2013-03-24 16:33:00,76.6,73.0,29.66,WSW,243,8.0,20.0,88,0.03,,,0.03,weatherlink.com 1.10,2013-03-24 20:33:00,
2013-03-24 16:48:00,77.0,73.0,29.66,West,267,10.0,21.0,88,0.00,,,0.03,weatherlink.com 1.10,2013-03-24 20:48:00,
2013-03-24 17:03:00,76.8,73.0,29.65,WSW,246,12.0,20.0,88,0.00,,,0.03,weatherlink.com 1.10,2013-03-24 21:03:00,
2013-03-24 17:18:00,76.9,73.0,29.66,West,269,11.0,18.0,88,0.00,,,0.03,weatherlink.com 1.10,2013-03-24 21:18:00,
2013-03-24 17:33:00,76.9,73.0,29.66,SW,229,8.0,19.0,88,0.00,,,0.03,weatherlink.com 1.10,2013-03-24 21:33:00,
2013-03-24 17:48:00,76.7,73.0,29.66,West,277,10.0,15.0,89,0.00,,,0.03,weatherlink.com 1.10,2013-03-24 21:48:00,
2013-03-24 18:03:00,76.6,73.0,29.66,West,266,7.0,17.0,89,0.00,,,0.03,weatherlink.com 1.10,2013-03-24 22:03:00,
2013-03-24 18:18:00,76.7,73.0,29.66,WSW,254,13.0,20.0,89,0.00,,,0.03,weatherlink.com 1.10,2013-03-24 22:18:00,
2013-03-24 18:33:00,76.5,73.0,29.67,West,269,8.0,18.0,89,0.00,,,0.03,weatherlink.com 1.10,2013-03-24 22:33:00,
2013-03-24 18:48:00,76.5,73.0,29.67,WSW,246,16.0,21.0,88,0.00,,,0.03,weatherlink.com 1.10,2013-03-24 22:48:00,
2013-03-24 19:03:00,76.3,73.0,29.67,WSW,254,9.0,15.0,89,0.00,,,0.03,weatherlink.com 1.10,2013-03-24 23:03:00,
2013-03-24 19:18:00,76.3,73.0,29.68,WNW,283,10.0,16.0,89,0.00,,,0.03,weatherlink.com 1.10,2013-03-24 23:18:00,
2013-03-24 19:33:00,76.3,73.0,29.68,WNW,284,13.0,16.0,89,0.00,,,0.03,weatherlink.com 1.10,2013-03-24 23:33:00,
2013-03-24 19:48:00,75.9,73.0,29.68,West,259,5.0,18.0,90,0.00,,,0.03,weatherlink.com 1.10,2013-03-24 23:48:00,
2013-03-24 20:03:00,75.6,73.0,29.69,West,273,4.0,13.0,91,0.00,,,0.03,weatherlink.com 1.10,2013-03-25 00:03:00,
2013-03-24 20:18:00,75.3,73.0,29.69,WNW,288,7.0,14.0,92,0.00,,,0.03,weatherlink.com 1.10,2013-03-25 00:18:00,
2013-03-24 20:33:00,75.0,73.0,29.70,WNW,302,7.0,14.0,93,0.00,,,0.03,weatherlink.com 1.10,2013-03-25 00:33:00,
2013-03-24 20:48:00,74.6,73.0,29.70,WNW,289,11.0,14.0,93,0.00,,,0.03,weatherlink.com 1.10,2013-03-25 00:48:00,
2013-03-24 21:03:00,74.2,72.0,29.71,WNW,284,6.0,13.0,93,0.00,,,0.03,weatherlink.com 1.10,2013-03-25 01:03:00,
2013-03-24 21:18:00,73.8,72.0,29.72,West,273,6.0,13.0,94,0.00,,,0.03,weatherlink.com 1.10,2013-03-25 01:18:00,
2013-03-24 21:33:00,73.5,72.0,29.72,WNW,294,5.0,13.0,94,0.00,,,0.03,weatherlink.com 1.10,2013-03-25 01:33:00,
2013-03-24 21:48:00,73.2,72.0,29.72,WNW,286,8.0,13.0,95,0.00,,,0.03,weatherlink.com 1.10,2013-03-25 01:48:00,
2013-03-24 22:03:00,72.8,71.0,29.73,West,263,4.0,11.0,95,0.00,,,0.03,weatherlink.com 1.10,2013-03-25 02:03:00,
2013-03-24 22:18:00,72.7,71.0,29.73,NW,305,8.0,11.0,95,0.00,,,0.03,weatherlink.com 1.10,2013-03-25 02:18:00,
2013-03-24 22:33:00,72.4,71.0,29.74,West,261,4.0,9.0,95,0.00,,,0.03,weatherlink.com 1.10,2013-03-25 02:33:00,
2013-03-24 22:48:00,72.1,71.0,29.74,NNW,330,5.0,9.0,95,0.00,,,0.03,weatherlink.com 1.10,2013-03-25 02:48:00,
2013-03-24 23:03:00,71.1,69.0,29.74,NW,324,4.0,11.0,94,0.00,,,0.03,weatherlink.com 1.10,2013-03-25 03:03:00,
2013-03-24 23:18:00,70.6,69.0,29.75,NW,315,5.0,10.0,94,0.00,,,0.03,weatherlink.com 1.10,2013-03-25 03:18:00,
2013-03-24 23:33:00,70.5,69.0,29.75,WNW,291,8.0,11.0,94,0.00,,,0.03,weatherlink.com 1.10,2013-03-25 03:33:00,
2013-03-24 23:48:00,70.1,68.0,29.75,WNW,302,5.0,10.0,94,0.00,,,0.03,weatherlink.com 1.10,2013-03-25 03:48:00,